Time;durP1;ratioP1;P1;durP2;ratioP2;P2;SDS_P1;SDS_P2;PMS_P1;PMS_P2;Temp;Humidity;BMP_temperature;BMP_pressure;BME280_temperature;BME280_humidity;BME280_pressure;Samples;Min_cycle;Max_cycle;Signal;HPM_P1;HPM_P2
2023/03/16 00:00:10;;;;;;;;;;;;;;;6.02;100.00;98389.88;5126768;27;19927;-63
2023/03/16 00:02:37;;;;;;;;;;;;;;;5.98;100.00;98387.69;5126093;27;20023;-63
2023/03/16 00:05:04;;;;;;;;;;;;;;;5.98;100.00;98378.91;5122909;28;19928;-63
2023/03/16 00:07:30;;;;;;;;;;;;;;;5.95;100.00;98374.88;5122674;28;19979;-64
2023/03/16 00:09:57;;;;;;;;;;;;;;;5.92;100.00;98379.78;5119681;28;19928;-63
2023/03/16 00:12:25;;;;;;;;;;;;;;;5.89;100.00;98374.94;5117969;28;19924;-63
2023/03/16 00:14:53;;;;;;;;;;;;;;;5.87;100.00;98379.66;5120536;28;19939;-63
2023/03/16 00:17:21;;;;;;;;;;;;;;;5.87;100.00;98387.59;5122576;28;19924;-62
2023/03/16 00:19:50;;;;;;;;;;;;;;;5.88;100.00;98394.53;5119646;28;19987;-64
2023/03/16 00:22:16;;;;;;;;;;;;;;;5.74;100.00;98393.00;5119293;28;19924;-64
2023/03/16 00:24:43;;;;;;;;;;;;;;;5.70;100.00;98390.00;5119001;28;19928;-63
2023/03/16 00:27:13;;;;;;;;;;;;;;;5.29;100.00;98395.88;5121201;28;19924;-63
2023/03/16 00:29:46;;;;;;;;;;;;;;;4.66;100.00;98395.16;5121725;28;19927;-63
2023/03/16 00:32:13;;;;;;;;;;;;;;;3.86;100.00;98401.03;5131113;27;19943;-63
2023/03/16 00:34:42;;;;;;;;;;;;;;;3.35;100.00;98400.09;5118506;28;19964;-63
2023/03/16 00:37:08;;;;;;;;;;;;;;;2.86;100.00;98401.34;5122312;28;19928;-63
2023/03/16 00:39:35;;;;;;;;;;;;;;;2.83;100.00;98407.00;5122381;28;19951;-63
2023/03/16 00:42:03;;;;;;;;;;;;;;;3.14;100.00;98412.50;5118703;28;19924;-63
2023/03/16 00:44:30;;;;;;;;;;;;;;;3.13;100.00;98413.50;5117478;28;19924;-63
2023/03/16 00:46:57;;;;;;;;;;;;;;;3.26;100.00;98423.25;5121668;28;19927;-62
2023/03/16 00:49:23;;;;;;;;;;;;;;;2.89;100.00;98414.13;5122167;28;19928;-63
2023/03/16 00:51:51;;;;;;;;;;;;;;;2.57;100.00;98417.50;5118952;28;19924;-63
2023/03/16 00:54:18;;;;;;;;;;;;;;;2.35;100.00;98413.41;5118429;28;19987;-63
2023/03/16 00:56:45;;;;;;;;;;;;;;;2.52;100.00;98414.66;5119833;28;19920;-63
2023/03/16 00:59:11;;;;;;;;;;;;;;;2.86;100.00;98411.88;5122149;28;20423;-63
2023/03/16 01:01:38;;;;;;;;;;;;;;;2.72;100.00;98420.81;5137827;28;19924;-63
2023/03/16 01:04:04;;;;;;;;;;;;;;;3.14;100.00;98420.44;5118662;28;19946;-63
2023/03/16 01:06:31;;;;;;;;;;;;;;;2.72;100.00;98410.25;5118354;28;19935;-63
2023/03/16 01:08:59;;;;;;;;;;;;;;;3.24;100.00;98412.09;5121898;28;19930;-62
2023/03/16 01:11:26;;;;;;;;;;;;;;;3.58;100.00;98416.34;5121830;28;19924;-63
2023/03/16 01:13:53;;;;;;;;;;;;;;;3.86;100.00;98419.53;5119582;28;19967;-62
2023/03/16 01:16:21;;;;;;;;;;;;;;;3.93;100.00;98409.72;5116538;28;19953;-62
2023/03/16 01:18:48;;;;;;;;;;;;;;;3.68;100.00;98414.09;5119055;28;19924;-62
2023/03/16 01:21:15;;;;;;;;;;;;;;;3.42;100.00;98408.84;5118479;28;19924;-63
2023/03/16 01:23:43;;;;;;;;;;;;;;;3.48;100.00;98413.28;5119583;28;19924;-63
2023/03/16 01:26:11;;;;;;;;;;;;;;;3.22;100.00;98407.00;5121076;28;19930;-63
2023/03/16 01:28:40;;;;;;;;;;;;;;;2.77;100.00;98392.00;5121681;28;19924;-62
2023/03/16 01:31:08;;;;;;;;;;;;;;;2.46;100.00;98395.19;5130808;28;19924;-63
2023/03/16 01:33:35;;;;;;;;;;;;;;;2.11;100.00;98394.47;5121827;28;19987;-63
2023/03/16 01:36:02;;;;;;;;;;;;;;;2.26;100.00;98406.69;5117184;28;19924;-63
2023/03/16 01:38:29;;;;;;;;;;;;;;;2.55;100.00;98398.44;5118584;28;19967;-63
2023/03/16 01:40:56;;;;;;;;;;;;;;;2.86;100.00;98396.06;5123319;28;19963;-63
2023/03/16 01:43:25;;;;;;;;;;;;;;;2.92;100.00;98403.16;5125819;28;19937;-62
2023/03/16 01:46:13;;;;;;;;;;;;;;;2.24;100.00;98400.78;5123445;28;19923;-62
2023/03/16 01:48:42;;;;;;;;;;;;;;;2.43;100.00;98400.03;5121527;28;19924;-63
2023/03/16 01:51:10;;;;;;;;;;;;;;;2.51;100.00;98410.38;5125577;28;19930;-63
2023/03/16 01:53:38;;;;;;;;;;;;;;;2.64;100.00;98413.06;5125455;28;20304;-63
2023/03/16 01:56:07;;;;;;;;;;;;;;;3.05;100.00;98411.09;5121857;28;19924;-63
2023/03/16 01:58:36;;;;;;;;;;;;;;;2.87;100.00;98402.16;5121734;28;19991;-63
2023/03/16 02:01:03;;;;;;;;;;;;;;;2.65;100.00;98404.16;5128872;27;19970;-63
2023/03/16 02:03:33;;;;;;;;;;;;;;;2.24;100.00;98406.88;5121821;28;19991;-62
2023/03/16 02:06:02;;;;;;;;;;;;;;;2.25;100.00;98412.97;5125210;28;19930;-63
2023/03/16 02:08:29;;;;;;;;;;;;;;;2.40;100.00;98411.81;5124881;28;19987;-63
2023/03/16 02:10:56;;;;;;;;;;;;;;;2.26;100.00;98415.38;5122148;28;19928;-63
2023/03/16 02:13:24;;;;;;;;;;;;;;;2.12;100.00;98408.47;5121348;28;19984;-62
2023/03/16 02:15:53;;;;;;;;;;;;;;;2.00;100.00;98410.84;5123485;28;19924;-62
2023/03/16 02:18:21;;;;;;;;;;;;;;;1.97;100.00;98418.34;5124979;28;19928;-63
2023/03/16 02:20:50;;;;;;;;;;;;;;;2.05;100.00;98412.88;5121861;28;19949;-62
2023/03/16 02:23:19;;;;;;;;;;;;;;;2.24;100.00;98406.06;5120970;28;19951;-62
2023/03/16 02:25:50;;;;;;;;;;;;;;;2.02;100.00;98406.19;5122316;28;19963;-62
2023/03/16 02:28:22;;;;;;;;;;;;;;;1.84;100.00;98421.72;5124157;28;20000;-62
2023/03/16 02:30:50;;;;;;;;;;;;;;;1.94;100.00;98427.44;5132245;27;19923;-63
2023/03/16 02:33:17;;;;;;;;;;;;;;;2.07;100.00;98421.41;5124264;28;19955;-62
2023/03/16 02:35:44;;;;;;;;;;;;;;;1.94;100.00;98422.16;5123200;28;19941;-63
2023/03/16 02:38:10;;;;;;;;;;;;;;;2.68;100.00;98423.03;5120703;28;19927;-64
2023/03/16 02:40:37;;;;;;;;;;;;;;;2.88;100.00;98414.34;5120545;28;19947;-62
2023/03/16 02:43:05;;;;;;;;;;;;;;;2.89;100.00;98414.13;5124045;28;19955;-62
2023/03/16 02:45:34;;;;;;;;;;;;;;;2.69;100.00;98413.28;5124077;28;19928;-63
2023/03/16 02:48:05;;;;;;;;;;;;;;;2.34;100.00;98409.97;5111949;28;19960;-63
2023/03/16 02:50:31;;;;;;;;;;;;;;;2.84;100.00;98411.28;5111548;28;19946;-62
2023/03/16 02:52:58;;;;;;;;;;;;;;;2.58;100.00;98413.88;5111726;28;19924;-62
2023/03/16 02:55:24;;;;;;;;;;;;;;;2.72;100.00;98410.25;5111644;28;19966;-62
2023/03/16 02:57:51;;;;;;;;;;;;;;;2.28;100.00;98405.47;5111576;28;20363;-62
2023/03/16 03:00:18;;;;;;;;;;;;;;;1.87;100.00;98410.78;5122525;27;19927;-62
2023/03/16 03:02:44;;;;;;;;;;;;;;;1.85;100.00;98410.19;5125872;27;19934;-62
2023/03/16 03:05:12;;;;;;;;;;;;;;;2.39;100.00;98417.25;5122437;28;19920;-62
2023/03/16 03:07:39;;;;;;;;;;;;;;;2.68;100.00;98419.56;5123284;28;20009;-62
2023/03/16 03:10:06;;;;;;;;;;;;;;;2.39;100.00;98433.06;5120277;28;19963;-62
2023/03/16 03:12:32;;;;;;;;;;;;;;;2.11;100.00;98427.91;5120245;28;19970;-62
2023/03/16 03:14:59;;;;;;;;;;;;;;;2.26;100.00;98427.78;5123519;28;19951;-62
2023/03/16 03:17:28;;;;;;;;;;;;;;;2.78;100.00;98425.28;5123224;28;19924;-62
2023/03/16 03:19:55;;;;;;;;;;;;;;;2.46;100.00;98424.19;5119363;28;19924;-63
2023/03/16 03:22:23;;;;;;;;;;;;;;;2.93;100.00;98427.72;5119741;28;19935;-63
2023/03/16 03:24:50;;;;;;;;;;;;;;;2.77;100.00;98423.66;5121635;28;19995;-63
2023/03/16 03:27:16;;;;;;;;;;;;;;;3.28;100.00;98420.44;5123264;28;19934;-63
2023/03/16 03:29:43;;;;;;;;;;;;;;;2.56;100.00;98411.44;5123340;27;19977;-63
2023/03/16 03:32:10;;;;;;;;;;;;;;;2.36;100.00;98421.09;5133914;27;19931;-63
2023/03/16 03:34:37;;;;;;;;;;;;;;;1.76;100.00;98424.50;5119651;28;19955;-63
2023/03/16 03:37:03;;;;;;;;;;;;;;;1.54;100.00;98409.78;5123056;28;19951;-63
2023/03/16 03:39:31;;;;;;;;;;;;;;;1.78;100.00;98417.22;5122998;28;19928;-62
2023/03/16 03:41:57;;;;;;;;;;;;;;;2.61;100.00;98402.91;5119972;28;19964;-62
2023/03/16 03:44:25;;;;;;;;;;;;;;;2.23;100.00;98405.25;5119700;28;20034;-62
2023/03/16 03:46:52;;;;;;;;;;;;;;;2.27;100.00;98410.94;5121936;28;19931;-62
2023/03/16 03:49:18;;;;;;;;;;;;;;;2.72;100.00;98404.97;5122933;28;19931;-62
2023/03/16 03:51:45;;;;;;;;;;;;;;;2.36;100.00;98405.28;5121366;28;19999;-62
2023/03/16 03:54:12;;;;;;;;;;;;;;;2.71;100.00;98403.34;5119400;28;19995;-62
2023/03/16 03:56:39;;;;;;;;;;;;;;;2.69;100.00;98400.13;5119714;28;19955;-63
2023/03/16 03:59:06;;;;;;;;;;;;;;;2.79;100.00;98411.06;5122704;28;20003;-61
2023/03/16 04:01:32;;;;;;;;;;;;;;;2.60;100.00;98409.22;5138889;27;19963;-62
2023/03/16 04:03:59;;;;;;;;;;;;;;;3.03;100.00;98413.09;5118708;28;19947;-62
2023/03/16 04:06:25;;;;;;;;;;;;;;;3.34;100.00;98425.72;5119002;28;19974;-62
2023/03/16 04:08:53;;;;;;;;;;;;;;;3.51;100.00;98424.25;5121316;28;19995;-62
2023/03/16 04:11:19;;;;;;;;;;;;;;;3.75;100.00;98417.50;5122406;28;19930;-62
2023/03/16 04:13:47;;;;;;;;;;;;;;;3.63;100.00;98411.22;5120815;28;20007;-62
2023/03/16 04:16:14;;;;;;;;;;;;;;;2.85;100.00;98398.91;5118900;28;20578;-62
2023/03/16 04:18:41;;;;;;;;;;;;;;;2.65;100.00;98412.88;5119608;28;19980;-62
2023/03/16 04:21:12;;;;;;;;;;;;;;;2.98;100.00;98425.28;5122192;28;19963;-62
2023/03/16 04:23:38;;;;;;;;;;;;;;;2.45;100.00;98433.09;5121646;28;19920;-62
2023/03/16 04:26:05;;;;;;;;;;;;;;;2.80;100.00;98435.63;5118583;28;19928;-62
2023/03/16 04:28:31;;;;;;;;;;;;;;;2.64;100.00;98439.44;5118613;28;19935;-60
2023/03/16 04:31:03;;;;;;;;;;;;;;;2.25;100.00;98439.31;5137934;27;19956;-60
2023/03/16 04:33:31;;;;;;;;;;;;;;;2.14;100.00;98440.69;5121869;28;19924;-62
2023/03/16 04:35:57;;;;;;;;;;;;;;;2.87;100.00;98439.91;5118778;28;19924;-62
2023/03/16 04:38:23;;;;;;;;;;;;;;;2.56;100.00;98442.25;5117168;28;19935;-63
2023/03/16 04:40:50;;;;;;;;;;;;;;;2.43;100.00;98436.94;5120262;28;20028;-62
2023/03/16 04:43:16;;;;;;;;;;;;;;;2.31;100.00;98430.63;5120668;28;19959;-62
2023/03/16 04:45:42;;;;;;;;;;;;;;;2.13;100.00;98421.44;5120768;28;19934;-62
2023/03/16 04:48:10;;;;;;;;;;;;;;;1.68;100.00;98426.47;5118403;28;19920;-62
2023/03/16 04:50:36;;;;;;;;;;;;;;;1.93;100.00;98431.06;5118648;28;20031;-62
2023/03/16 04:53:04;;;;;;;;;;;;;;;2.02;100.00;98416.72;5122453;28;20054;-62
2023/03/16 04:55:30;;;;;;;;;;;;;;;2.38;100.00;98415.66;5122288;28;19934;-62
2023/03/16 04:57:57;;;;;;;;;;;;;;;1.89;100.00;98400.84;5118980;28;19964;-62
2023/03/16 05:00:23;;;;;;;;;;;;;;;1.75;100.00;98412.34;5130848;28;19963;-62
2023/03/16 05:02:51;;;;;;;;;;;;;;;2.53;100.00;98406.56;5123152;28;19924;-62
2023/03/16 05:05:20;;;;;;;;;;;;;;;2.99;100.00;98396.06;5121525;28;19923;-62
2023/03/16 05:07:46;;;;;;;;;;;;;;;2.74;100.00;98392.41;5120143;28;19946;-62
2023/03/16 05:10:15;;;;;;;;;;;;;;;2.41;100.00;98394.16;5117998;28;19920;-63
2023/03/16 05:12:41;;;;;;;;;;;;;;;2.23;100.00;98396.56;5119004;28;19955;-63
2023/03/16 05:15:08;;;;;;;;;;;;;;;2.49;100.00;98391.34;5124238;28;19919;-63
2023/03/16 05:17:35;;;;;;;;;;;;;;;2.96;100.00;98401.75;5125881;28;19984;-63
2023/03/16 05:20:05;;;;;;;;;;;;;;;2.31;100.00;98412.19;5114089;28;19951;-62
2023/03/16 05:22:35;;;;;;;;;;;;;;;2.43;100.00;98406.13;5113876;28;20093;-62
2023/03/16 05:25:02;;;;;;;;;;;;;;;1.72;100.00;98404.03;5124800;28;19920;-62
2023/03/16 05:27:29;;;;;;;;;;;;;;;1.58;100.00;98416.28;5125590;28;19973;-62
2023/03/16 05:29:55;;;;;;;;;;;;;;;1.29;100.00;98406.81;5127567;27;19970;-62
2023/03/16 05:32:22;;;;;;;;;;;;;;;0.93;100.00;98417.44;5133081;27;19924;-63
2023/03/16 05:34:48;;;;;;;;;;;;;;;1.87;100.00;98416.06;5123699;28;19924;-62
2023/03/16 05:37:14;;;;;;;;;;;;;;;2.58;100.00;98413.88;5125235;28;19923;-62
2023/03/16 05:39:42;;;;;;;;;;;;;;;2.38;100.00;98420.91;5124610;28;19963;-62
2023/03/16 05:42:09;;;;;;;;;;;;;;;2.53;100.00;98424.22;5121817;28;19924;-62
2023/03/16 05:44:35;;;;;;;;;;;;;;;2.62;100.00;98425.66;5121800;28;19960;-62
2023/03/16 05:47:02;;;;;;;;;;;;;;;2.35;100.00;98418.69;5113293;28;20449;-62
2023/03/16 05:49:28;;;;;;;;;;;;;;;2.22;100.00;98421.28;5113051;28;19963;-62
2023/03/16 05:51:55;;;;;;;;;;;;;;;2.62;100.00;98420.38;5113055;28;20463;-62
2023/03/16 05:54:21;;;;;;;;;;;;;;;2.61;100.00;98408.19;5112891;28;19944;-62
2023/03/16 05:56:49;;;;;;;;;;;;;;;3.08;100.00;98405.41;5113006;28;19924;-62
2023/03/16 05:59:16;;;;;;;;;;;;;;;3.19;100.00;98412.69;5112859;28;19960;-62
2023/03/16 06:01:43;;;;;;;;;;;;;;;3.17;100.00;98401.53;5134117;27;19928;-62
2023/03/16 06:04:10;;;;;;;;;;;;;;;2.53;100.00;98403.13;5112828;28;19983;-62
2023/03/16 06:06:36;;;;;;;;;;;;;;;2.04;100.00;98408.66;5112986;28;19924;-62
2023/03/16 06:09:03;;;;;;;;;;;;;;;2.12;100.00;98413.72;5112886;28;19988;-62
2023/03/16 06:11:31;;;;;;;;;;;;;;;1.63;100.00;98419.16;5119226;28;19924;-62
2023/03/16 06:13:59;;;;;;;;;;;;;;;1.39;100.00;98420.41;5121532;28;19924;-62
2023/03/16 06:16:25;;;;;;;;;;;;;;;2.30;100.00;98426.34;5121031;28;19975;-62
2023/03/16 06:18:52;;;;;;;;;;;;;;;2.35;100.00;98419.50;5123306;28;20004;-63
2023/03/16 06:21:18;;;;;;;;;;;;;;;2.47;100.00;98422.38;5124485;28;19923;-62
2023/03/16 06:23:45;;;;;;;;;;;;;;;2.60;100.00;98415.28;5123175;28;19989;-63
2023/03/16 06:26:11;;;;;;;;;;;;;;;2.26;100.00;98420.66;5119919;28;20027;-62
2023/03/16 06:28:37;;;;;;;;;;;;;;;1.89;100.00;98429.03;5121028;28;19924;-63
2023/03/16 06:31:05;;;;;;;;;;;;;;;1.39;100.00;98427.53;5140645;27;19959;-61
2023/03/16 06:33:32;;;;;;;;;;;;;;;1.49;100.00;98433.22;5124244;28;19946;-61
2023/03/16 06:35:58;;;;;;;;;;;;;;;2.03;100.00;98431.53;5120810;28;19924;-61
2023/03/16 06:38:24;;;;;;;;;;;;;;;2.68;100.00;98425.66;5120458;28;19928;-62
2023/03/16 06:40:51;;;;;;;;;;;;;;;2.65;100.00;98425.25;5122410;28;19981;-62
2023/03/16 06:43:18;;;;;;;;;;;;;;;2.51;100.00;98440.22;5123846;28;19970;-62
2023/03/16 06:45:44;;;;;;;;;;;;;;;2.54;100.00;98429.25;5122784;28;19924;-62
2023/03/16 06:48:12;;;;;;;;;;;;;;;2.57;100.00;98428.06;5119510;28;19921;-62
2023/03/16 06:50:38;;;;;;;;;;;;;;;2.66;100.00;98440.06;5120970;28;19942;-62
2023/03/16 06:53:05;;;;;;;;;;;;;;;2.90;100.00;98438.69;5124423;28;19924;-62
2023/03/16 06:55:31;;;;;;;;;;;;;;;2.64;100.00;98444.72;5122949;28;20371;-62
2023/03/16 06:57:57;;;;;;;;;;;;;;;2.41;100.00;98444.25;5120899;28;19951;-62
2023/03/16 07:00:24;;;;;;;;;;;;;;;2.55;100.00;98438.00;5133199;27;19983;-62
2023/03/16 07:02:50;;;;;;;;;;;;;;;1.63;100.00;98446.31;5125453;27;19946;-62
2023/03/16 07:05:18;;;;;;;;;;;;;;;2.04;100.00;98443.69;5123914;28;19978;-62
2023/03/16 07:07:45;;;;;;;;;;;;;;;2.03;100.00;98457.06;5122507;28;19987;-62
2023/03/16 07:10:11;;;;;;;;;;;;;;;2.18;100.00;98448.00;5120334;28;19979;-62
2023/03/16 07:12:38;;;;;;;;;;;;;;;2.17;100.00;98448.19;5120210;28;19967;-62
2023/03/16 07:15:05;;;;;;;;;;;;;;;2.19;100.00;98451.47;5123438;28;19930;-62
2023/03/16 07:17:31;;;;;;;;;;;;;;;2.40;100.00;98453.16;5123431;28;19948;-62
2023/03/16 07:19:58;;;;;;;;;;;;;;;2.17;100.00;98456.09;5120281;28;19935;-62
2023/03/16 07:22:25;;;;;;;;;;;;;;;1.68;100.00;98458.88;5119831;28;19988;-62
2023/03/16 07:24:56;;;;;;;;;;;;;;;2.06;100.00;98461.94;5122189;28;19935;-62
2023/03/16 07:27:23;;;;;;;;;;;;;;;1.90;100.00;98464.88;5123238;28;19924;-62
2023/03/16 07:29:50;;;;;;;;;;;;;;;1.75;100.00;98458.91;5124407;27;19924;-62
2023/03/16 07:32:17;;;;;;;;;;;;;;;1.56;100.00;98466.50;5132103;27;19995;-62
2023/03/16 07:34:43;;;;;;;;;;;;;;;1.61;100.00;98471.19;5120384;28;19923;-62
2023/03/16 07:37:10;;;;;;;;;;;;;;;1.35;100.00;98474.44;5122933;28;19924;-62
2023/03/16 07:39:37;;;;;;;;;;;;;;;1.30;100.00;98468.91;5122797;28;19935;-62
2023/03/16 07:42:04;;;;;;;;;;;;;;;1.04;100.00;98471.34;5119319;28;19967;-62
2023/03/16 07:44:31;;;;;;;;;;;;;;;1.06;100.00;98462.25;5117920;28;19988;-62
2023/03/16 07:46:57;;;;;;;;;;;;;;;0.81;100.00;98466.25;5122366;28;20420;-62
2023/03/16 07:49:23;;;;;;;;;;;;;;;0.87;100.00;98476.03;5122788;28;19931;-62
2023/03/16 07:51:50;;;;;;;;;;;;;;;0.82;100.00;98486.31;5120933;28;19928;-62
2023/03/16 07:54:17;;;;;;;;;;;;;;;1.03;100.00;98490.75;5119144;28;19935;-62
2023/03/16 07:56:44;;;;;;;;;;;;;;;0.51;100.00;98491.84;5120441;28;19924;-62
2023/03/16 07:59:11;;;;;;;;;;;;;;;0.69;100.00;98494.03;5121375;28;19931;-62
2023/03/16 08:01:37;;;;;;;;;;;;;;;0.49;100.00;98504.34;5137689;27;19947;-62
2023/03/16 08:04:03;;;;;;;;;;;;;;;0.33;100.00;98499.31;5119202;28;19943;-62
2023/03/16 08:06:30;;;;;;;;;;;;;;;0.36;100.00;98513.88;5118875;28;19924;-62
2023/03/16 08:08:56;;;;;;;;;;;;;;;0.26;100.00;98513.34;5121789;28;19994;-61
2023/03/16 08:11:23;;;;;;;;;;;;;;;0.37;100.00;98511.06;5122408;28;19966;-61
2023/03/16 08:13:53;;;;;;;;;;;;;;;0.34;100.00;98508.78;5120436;28;19973;-61
2023/03/16 08:16:19;;;;;;;;;;;;;;;0.27;100.00;98509.72;5118785;28;19974;-61
2023/03/16 08:18:46;;;;;;;;;;;;;;;0.28;100.00;98504.28;5120165;28;20534;-62
2023/03/16 08:21:13;;;;;;;;;;;;;;;0.52;100.00;98508.41;5121207;28;19983;-62
2023/03/16 08:23:39;;;;;;;;;;;;;;;0.49;100.00;98514.03;5120666;28;19924;-62
2023/03/16 08:26:07;;;;;;;;;;;;;;;0.56;100.00;98511.50;5118806;28;20524;-62
2023/03/16 08:28:34;;;;;;;;;;;;;;;0.70;100.00;98511.47;5118765;28;20434;-62
2023/03/16 08:31:01;;;;;;;;;;;;;;;0.87;100.00;98506.75;5138214;27;19983;-62
2023/03/16 08:33:28;;;;;;;;;;;;;;;0.81;100.00;98508.31;5121898;28;20540;-62
2023/03/16 08:35:54;;;;;;;;;;;;;;;0.82;100.00;98509.97;5119596;28;19959;-62
2023/03/16 08:38:21;;;;;;;;;;;;;;;1.05;100.00;98497.44;5118578;28;19924;-62
2023/03/16 08:40:47;;;;;;;;;;;;;;;0.93;100.00;98485.78;5119886;28;19952;-62
2023/03/16 08:43:14;;;;;;;;;;;;;;;0.84;100.00;98497.44;5122122;28;19926;-62
2023/03/16 08:45:41;;;;;;;;;;;;;;;0.95;100.00;98504.84;5121474;28;19958;-62
2023/03/16 08:48:11;;;;;;;;;;;;;;;1.06;100.00;98491.19;5118266;28;19940;-62
2023/03/16 08:50:39;;;;;;;;;;;;;;;1.08;100.00;98489.16;5118243;28;19925;-62
2023/03/16 08:53:05;;;;;;;;;;;;;;;0.83;100.00;98485.31;5122115;28;19987;-62
2023/03/16 08:55:31;;;;;;;;;;;;;;;0.84;100.00;98484.28;5122102;28;20187;-62
2023/03/16 08:57:58;;;;;;;;;;;;;;;1.04;100.00;98476.59;5119011;28;19928;-62
2023/03/16 09:00:25;;;;;;;;;;;;;;;1.03;100.00;98475.78;5131451;28;19931;-62
2023/03/16 09:02:52;;;;;;;;;;;;;;;1.21;100.00;98482.44;5122096;28;19936;-62
2023/03/16 09:05:19;;;;;;;;;;;;;;;1.06;100.00;98479.84;5121725;28;19928;-62
2023/03/16 09:07:46;;;;;;;;;;;;;;;1.00;100.00;98484.06;5120286;28;19991;-63
2023/03/16 09:10:14;;;;;;;;;;;;;;;0.97;100.00;98480.97;5118101;28;19979;-62
2023/03/16 09:12:41;;;;;;;;;;;;;;;1.14;100.00;98478.91;5118724;28;19966;-62
2023/03/16 09:15:09;;;;;;;;;;;;;;;1.25;100.00;98479.22;5121577;28;19972;-63
2023/03/16 09:17:35;;;;;;;;;;;;;;;1.41;100.00;98478.13;5120467;28;19997;-63
2023/03/16 09:20:01;;;;;;;;;;;;;;;1.54;100.00;98470.34;5109835;28;19946;-63
2023/03/16 09:22:29;;;;;;;;;;;;;;;1.64;100.00;98476.88;5109709;28;19978;-63
2023/03/16 09:24:55;;;;;;;;;;;;;;;1.63;100.00;98469.19;5108523;28;19955;-62
2023/03/16 09:27:22;;;;;;;;;;;;;;;1.67;100.00;98477.50;5109785;28;19924;-62
2023/03/16 09:29:49;;;;;;;;;;;;;;;1.63;100.00;98472.63;5112617;28;19924;-62
2023/03/16 09:32:16;;;;;;;;;;;;;;;1.82;100.00;98476.41;5130973;28;19946;-62
2023/03/16 09:34:43;;;;;;;;;;;;;;;1.93;100.00;98473.22;5118819;28;19934;-62
2023/03/16 09:37:10;;;;;;;;;;;;;;;1.95;100.00;98481.72;5121714;28;19945;-63
2023/03/16 09:39:38;;;;;;;;;;;;;;;1.98;100.00;98477.91;5121499;28;19953;-63
2023/03/16 09:42:08;;;;;;;;;;;;;;;2.02;100.00;98477.31;5118031;28;19935;-62
2023/03/16 09:44:42;;;;;;;;;;;;;;;2.02;100.00;98493.13;5118084;28;19928;-62
2023/03/16 09:47:10;;;;;;;;;;;;;;;2.00;100.00;98481.97;5109563;28;19924;-62
2023/03/16 09:49:38;;;;;;;;;;;;;;;2.10;100.00;98484.25;5109523;28;19924;-62
2023/03/16 09:52:08;;;;;;;;;;;;;;;2.65;100.00;98483.25;5109510;28;19946;-61
2023/03/16 09:54:39;;;;;;;;;;;;;;;2.38;100.00;98486.81;5109454;28;19924;-62
2023/03/16 09:57:17;;;;;;;;;;;;;;;2.53;100.00;98480.38;5109189;28;19946;-62
2023/03/16 09:59:44;;;;;;;;;;;;;;;2.27;100.00;98487.34;5152500;27;19924;-62
2023/03/16 10:02:25;;;;;;;;;;;;;;;2.11;100.00;98478.78;5134636;28;19920;-62
2023/03/16 10:04:57;;;;;;;;;;;;;;;1.99;100.00;98480.34;5123611;28;19931;-62
2023/03/16 10:07:29;;;;;;;;;;;;;;;2.32;100.00;98477.06;5125152;28;19995;-62
2023/03/16 10:09:57;;;;;;;;;;;;;;;2.37;100.00;98474.63;5122270;28;20037;-62
2023/03/16 10:12:28;;;;;;;;;;;;;;;2.36;100.00;98478.28;5120227;28;19924;-62
2023/03/16 10:14:58;;;;;;;;;;;;;;;2.25;100.00;98474.41;5123747;28;19991;-62
2023/03/16 10:17:29;;;;;;;;;;;;;;;2.32;100.00;98471.78;5124703;28;20513;-62
2023/03/16 10:19:57;;;;;;;;;;;;;;;2.42;100.00;98465.13;5121995;28;19995;-62
2023/03/16 10:22:26;;;;;;;;;;;;;;;2.40;100.00;98458.44;5121163;28;19931;-62
2023/03/16 10:24:58;;;;;;;;;;;;;;;2.55;100.00;98456.44;5123415;28;19924;-62
2023/03/16 10:27:28;;;;;;;;;;;;;;;2.79;100.00;98455.06;5124778;28;20339;-62
2023/03/16 10:29:55;;;;;;;;;;;;;;;2.91;100.00;98449.00;5126785;27;19978;-62
2023/03/16 10:32:23;;;;;;;;;;;;;;;3.14;100.00;98446.00;5132645;27;19952;-62
2023/03/16 10:34:53;;;;;;;;;;;;;;;3.00;100.00;98449.66;5122843;28;20268;-63
2023/03/16 10:37:20;;;;;;;;;;;;;;;2.95;100.00;98447.59;5124535;28;19924;-62
2023/03/16 10:39:48;;;;;;;;;;;;;;;2.69;100.00;98442.31;5122883;28;19974;-62
2023/03/16 10:42:16;;;;;;;;;;;;;;;2.68;100.00;98443.31;5120702;28;19927;-62
2023/03/16 10:44:44;;;;;;;;;;;;;;;2.69;100.00;98444.94;5121276;28;19936;-62
2023/03/16 10:47:18;;;;;;;;;;;;;;;2.89;100.00;98440.50;5124334;28;19961;-62
2023/03/16 10:49:47;;;;;;;;;;;;;;;2.97;100.00;98444.78;5123011;28;19924;-62
2023/03/16 10:52:18;;;;;;;;;;;;;;;3.08;100.00;98445.00;5120710;28;19920;-62
2023/03/16 10:54:48;;;;;;;;;;;;;;;3.20;100.00;98440.72;5121739;28;19924;-62
2023/03/16 10:57:21;;;;;;;;;;;;;;;3.45;100.00;98443.56;5124226;28;19923;-62
2023/03/16 10:59:50;;;;;;;;;;;;;;;3.65;100.00;98432.97;5124157;27;19942;-62
2023/03/16 11:02:18;;;;;;;;;;;;;;;3.73;100.00;98430.94;5133407;27;19971;-62
2023/03/16 11:04:44;;;;;;;;;;;;;;;4.06;100.00;98430.81;5121745;28;19924;-62
2023/03/16 11:07:16;;;;;;;;;;;;;;;4.17;100.00;98424.09;5124309;28;19924;-62
2023/03/16 11:09:43;;;;;;;;;;;;;;;3.99;100.00;98432.66;5123506;28;19927;-62
2023/03/16 11:12:22;;;;;;;;;;;;;;;4.03;100.00;98425.97;5120157;28;19930;-63
2023/03/16 11:14:50;;;;;;;;;;;;;;;4.16;100.00;98415.34;5120277;28;19928;-63
2023/03/16 11:17:19;;;;;;;;;;;;;;;4.09;100.00;98414.56;5122178;28;19924;-62
2023/03/16 11:19:50;;;;;;;;;;;;;;;4.03;100.00;98412.75;5120928;28;20237;-62
2023/03/16 11:22:17;;;;;;;;;;;;;;;4.18;100.00;98415.13;5119734;28;19958;-62
2023/03/16 11:24:46;;;;;;;;;;;;;;;4.24;100.00;98406.38;5120975;28;19966;-62
2023/03/16 11:27:18;;;;;;;;;;;;;;;4.29;100.00;98394.16;5123307;28;19924;-62
2023/03/16 11:29:50;;;;;;;;;;;;;;;4.48;100.00;98395.06;5123767;27;19924;-62
2023/03/16 11:32:19;;;;;;;;;;;;;;;4.72;100.00;98389.00;5132360;27;19920;-62
2023/03/16 11:34:47;;;;;;;;;;;;;;;4.82;100.00;98380.59;5120651;28;19924;-62
2023/03/16 11:37:20;;;;;;;;;;;;;;;4.89;100.00;98386.63;5123124;28;19924;-62
2023/03/16 11:39:51;;;;;;;;;;;;;;;4.80;100.00;98380.00;5121597;28;19941;-62
2023/03/16 11:42:26;;;;;;;;;;;;;;;4.78;100.00;98369.63;5119371;28;19963;-62
2023/03/16 11:44:58;;;;;;;;;;;;;;;4.88;100.00;98366.50;5121634;28;19931;-62
2023/03/16 11:47:32;;;;;;;;;;;;;;;4.99;100.00;98367.63;5122721;28;19931;-61
2023/03/16 11:50:01;;;;;;;;;;;;;;;5.08;100.00;98355.75;5119679;28;19928;-62
2023/03/16 11:52:34;;;;;;;;;;;;;;;5.17;100.00;98360.56;5119364;28;19924;-62
2023/03/16 11:55:04;;;;;;;;;;;;;;;5.16;100.00;98351.00;5122678;28;19979;-63
2023/03/16 11:57:39;;;;;;;;;;;;;;;5.19;100.00;98353.22;5122730;28;19953;-62
2023/03/16 12:00:13;;;;;;;;;;;;;;;5.30;100.00;98344.56;5126873;27;19969;-62
2023/03/16 12:02:49;;;;;;;;;;;;;;;5.27;100.00;98344.16;5124440;27;19984;-63
2023/03/16 12:05:36;;;;;;;;;;;;;;;5.48;100.00;98341.09;5122719;28;19923;-63
2023/03/16 12:08:11;;;;;;;;;;;;;;;5.61;100.00;98335.66;5110295;28;19966;-62
2023/03/16 12:10:42;;;;;;;;;;;;;;;5.74;100.00;98334.72;5110561;28;19995;-62
2023/03/16 12:13:18;;;;;;;;;;;;;;;5.78;100.00;98333.25;5110471;28;19930;-62
2023/03/16 12:15:47;;;;;;;;;;;;;;;5.75;100.00;98318.59;5110064;28;19946;-62
2023/03/16 12:18:18;;;;;;;;;;;;;;;5.75;100.00;98323.09;5110303;28;19987;-62
2023/03/16 12:20:48;;;;;;;;;;;;;;;5.82;100.00;98319.31;5110409;28;19958;-63
2023/03/16 12:23:21;;;;;;;;;;;;;;;6.05;100.00;98323.16;5109001;28;19962;-63
2023/03/16 12:25:49;;;;;;;;;;;;;;;6.00;100.00;98317.72;5110201;28;19931;-63
2023/03/16 12:28:18;;;;;;;;;;;;;;;6.11;100.00;98314.31;5110501;28;20521;-63
2023/03/16 12:30:48;;;;;;;;;;;;;;;6.06;100.00;98314.19;5128015;27;19924;-63
2023/03/16 12:33:22;;;;;;;;;;;;;;;6.22;100.00;98301.06;5122358;28;19924;-63
2023/03/16 12:35:52;;;;;;;;;;;;;;;6.39;100.00;98309.22;5119569;28;19924;-63
2023/03/16 12:38:22;;;;;;;;;;;;;;;6.42;100.00;98295.50;5117762;28;19950;-63
2023/03/16 12:40:54;;;;;;;;;;;;;;;6.30;100.00;98290.16;5120165;28;19964;-63
2023/03/16 12:43:29;;;;;;;;;;;;;;;6.43;100.00;98289.97;5121461;28;21465;-63
2023/03/16 12:45:59;;;;;;;;;;;;;;;6.47;100.00;98292.97;5119637;28;19924;-62
2023/03/16 12:48:28;;;;;;;;;;;;;;;6.57;100.00;98290.56;5118513;28;19962;-63
2023/03/16 12:50:56;;;;;;;;;;;;;;;6.69;100.00;98285.28;5121078;28;20451;-63